Time;durP1;ratioP1;P1;durP2;ratioP2;P2;SDS_P1;SDS_P2;PMS_P1;PMS_P2;Temp;Humidity;BMP_temperature;BMP_pressure;BME280_temperature;BME280_humidity;BME280_pressure;Samples;Min_cycle;Max_cycle;Signal;HPM_P1;HPM_P2
2023/04/14 00:00:57;;;;;;;16.88;2.50;;;7.60;99.90;;;;;;5010312;28;20101;-74
2023/04/14 00:03:22;;;;;;;16.27;2.85;;;7.60;99.90;;;;;;5007546;28;20070;-74
2023/04/14 00:05:48;;;;;;;13.30;2.58;;;7.60;99.90;;;;;;4994747;28;20073;-74
2023/04/14 00:08:14;;;;;;;13.32;2.70;;;7.60;99.90;;;;;;5012512;28;20096;-73
2023/04/14 00:10:40;;;;;;;17.20;3.00;;;7.50;99.90;;;;;;5009177;28;20026;-74
2023/04/14 00:13:05;;;;;;;13.00;2.92;;;7.50;99.90;;;;;;5013482;28;20060;-73
2023/04/14 00:15:31;;;;;;;12.50;3.10;;;7.50;99.90;;;;;;5012840;28;20060;-74
2023/04/14 00:17:57;;;;;;;17.33;3.08;;;7.50;99.90;;;;;;5013012;28;20379;-74
2023/04/14 00:20:22;;;;;;;13.65;2.45;;;7.50;99.90;;;;;;5002145;28;20077;-74
2023/04/14 00:22:48;;;;;;;17.35;3.17;;;7.50;99.90;;;;;;5011648;28;20038;-74
2023/04/14 00:25:14;;;;;;;17.02;2.85;;;7.40;99.90;;;;;;5012672;28;20026;-75
2023/04/14 00:27:39;;;;;;;18.77;2.63;;;7.40;99.90;;;;;;5013281;28;20480;-74
2023/04/14 00:30:06;;;;;;;12.35;2.80;;;7.40;99.90;;;;;;5008552;28;20029;-74
2023/04/14 00:32:32;;;;;;;16.95;3.75;;;7.40;99.90;;;;;;5012658;28;20030;-74
2023/04/14 00:34:59;;;;;;;9.15;2.58;;;7.40;99.90;;;;;;5011727;28;20030;-74
2023/04/14 00:37:25;;;;;;;10.38;2.80;;;7.30;99.90;;;;;;5012800;28;20088;-74
2023/04/14 00:39:50;;;;;;;20.90;3.20;;;7.30;99.90;;;;;;5012391;28;20030;-74
2023/04/14 00:42:16;;;;;;;12.90;2.95;;;7.30;99.90;;;;;;5005198;28;20034;-75
2023/04/14 00:44:41;;;;;;;16.15;3.28;;;7.30;99.90;;;;;;4994638;28;20030;-74
2023/04/14 00:47:08;;;;;;;10.10;2.50;;;7.30;99.90;;;;;;5012659;28;20034;-74
2023/04/14 00:49:35;;;;;;;12.68;2.80;;;7.20;99.90;;;;;;5007788;28;20037;-73
2023/04/14 00:52:02;;;;;;;16.63;3.30;;;7.20;99.90;;;;;;5011733;28;20032;-74
2023/04/14 00:54:28;;;;;;;15.63;3.10;;;7.20;99.90;;;;;;5012670;28;20038;-74
2023/04/14 00:56:56;;;;;;;13.77;2.70;;;7.20;99.90;;;;;;5004492;28;20037;-74
2023/04/14 00:59:22;;;;;;;10.52;2.58;;;7.10;99.90;;;;;;5012539;28;20423;-75
2023/04/14 01:01:48;;;;;;;13.40;2.92;;;7.10;99.90;;;;;;5012467;28;20029;-74
2023/04/14 01:04:14;;;;;;;13.25;2.60;;;7.20;99.90;;;;;;5012708;28;20511;-74
2023/04/14 01:06:40;;;;;;;13.48;3.00;;;7.10;99.90;;;;;;5012856;28;20076;-74
2023/04/14 01:09:06;;;;;;;12.88;2.40;;;7.10;99.90;;;;;;5015052;28;20516;-74
2023/04/14 01:11:56;;;;;;;13.30;2.67;;;7.10;99.90;;;;;;5018734;28;20034;-73
2023/04/14 01:14:42;;;;;;;15.52;2.17;;;7.10;99.90;;;;;;5033416;28;20014;-74
2023/04/14 01:17:36;;;;;;;13.75;2.33;;;7.10;99.90;;;;;;5018959;28;20511;-74
2023/04/14 01:20:16;;;;;;;14.25;2.13;;;7.10;99.90;;;;;;5009374;28;20034;-74
2023/04/14 01:23:11;;;;;;;10.90;1.90;;;7.10;99.90;;;;;;5018735;28;20068;-74
2023/04/14 01:25:54;;;;;;;14.13;1.98;;;7.10;99.90;;;;;;5017734;28;20029;-74
2023/04/14 01:28:26;;;;;;;10.02;1.92;;;7.10;99.90;;;;;;5006061;28;20053;-75
2023/04/14 01:31:16;;;;;;;10.93;2.13;;;7.10;99.90;;;;;;5015199;28;20019;-73
2023/04/14 01:33:45;;;;;;;16.13;2.15;;;7.10;99.90;;;;;;5015558;28;20030;-74
2023/04/14 01:36:25;;;;;;;12.95;2.03;;;7.10;99.90;;;;;;5018780;28;20314;-73
2023/04/14 01:38:52;;;;;;;15.32;2.03;;;7.10;99.90;;;;;;5019159;28;20038;-74
2023/04/14 01:41:21;;;;;;;11.93;2.15;;;7.10;99.90;;;;;;5012134;28;20365;-74
2023/04/14 01:43:52;;;;;;;13.32;2.35;;;7.10;99.90;;;;;;5016162;28;20492;-74
2023/04/14 01:46:20;;;;;;;15.68;2.53;;;7.10;99.90;;;;;;5018488;28;20049;-74
2023/04/14 01:48:48;;;;;;;19.52;2.97;;;7.10;99.90;;;;;;5010363;28;20045;-74
2023/04/14 01:51:17;;;;;;;14.63;2.05;;;7.10;99.90;;;;;;5015023;28;20054;-74
2023/04/14 01:53:44;;;;;;;7.00;1.83;;;7.10;99.90;;;;;;5011524;28;20133;-74
2023/04/14 01:56:13;;;;;;;15.38;2.35;;;7.10;99.90;;;;;;5013928;28;20116;-74
2023/04/14 01:58:41;;;;;;;11.85;2.25;;;7.10;99.90;;;;;;5003019;28;20100;-74
2023/04/14 02:01:07;;;;;;;14.13;2.13;;;7.10;99.90;;;;;;5018852;28;20026;-74
2023/04/14 02:03:33;;;;;;;13.50;2.45;;;7.10;99.90;;;;;;5019059;28;20042;-75
2023/04/14 02:06:02;;;;;;;11.85;2.00;;;7.10;99.90;;;;;;5018661;28;20042;-74
2023/04/14 02:08:31;;;;;;;13.35;2.15;;;7.10;99.90;;;;;;5018241;28;20112;-74
2023/04/14 02:10:59;;;;;;;14.93;2.17;;;7.00;99.90;;;;;;5013748;28;20048;-74
2023/04/14 02:13:27;;;;;;;10.98;2.10;;;7.00;99.90;;;;;;5017144;28;20476;-74
2023/04/14 02:15:53;;;;;;;9.60;2.00;;;7.00;99.90;;;;;;5015015;28;20100;-74
2023/04/14 02:18:21;;;;;;;11.57;2.10;;;6.90;99.90;;;;;;5017243;28;20108;-73
2023/04/14 02:20:51;;;;;;;14.13;2.60;;;6.90;99.90;;;;;;5015496;28;20532;-74
2023/04/14 02:23:17;;;;;;;10.05;2.25;;;6.90;99.90;;;;;;5012970;28;20417;-74
2023/04/14 02:25:56;;;;;;;12.77;3.08;;;6.90;99.90;;;;;;5008500;28;20026;-74
2023/04/14 02:28:26;;;;;;;7.35;1.90;;;6.90;99.90;;;;;;5015138;28;20106;-74
2023/04/14 02:30:54;;;;;;;13.38;2.25;;;6.80;99.90;;;;;;5009386;28;20104;-75
2023/04/14 02:33:26;;;;;;;10.50;2.30;;;6.80;99.90;;;;;;5018246;28;20030;-74
2023/04/14 02:36:13;;;;;;;12.55;2.70;;;6.80;99.90;;;;;;5022468;28;20468;-74
2023/04/14 02:38:49;;;;;;;10.10;2.50;;;6.70;99.90;;;;;;5018472;28;20060;-75
2023/04/14 02:41:29;;;;;;;10.38;2.42;;;6.70;99.90;;;;;;5013127;28;20030;-75
2023/04/14 02:44:17;;;;;;;11.35;2.25;;;6.70;99.90;;;;;;5014457;28;20029;-75
2023/04/14 02:46:52;;;;;;;10.85;2.70;;;6.70;99.90;;;;;;5009944;28;20056;-75
2023/04/14 02:49:20;;;;;;;12.45;2.95;;;6.60;99.90;;;;;;5014892;28;20068;-74
2023/04/14 02:51:48;;;;;;;13.27;2.75;;;6.60;99.90;;;;;;5006138;28;20380;-74
2023/04/14 02:54:17;;;;;;;14.77;3.08;;;6.60;99.90;;;;;;5002292;28;20583;-74
2023/04/14 02:56:43;;;;;;;11.20;2.72;;;6.60;99.90;;;;;;5007061;28;20018;-75
2023/04/14 02:59:09;;;;;;;18.67;3.25;;;6.60;99.90;;;;;;5014932;28;20030;-75
2023/04/14 03:01:35;;;;;;;11.65;2.85;;;6.60;99.90;;;;;;5007283;28;20022;-73
2023/04/14 03:04:01;;;;;;;10.60;2.65;;;6.60;99.90;;;;;;5006477;28;20492;-74
2023/04/14 03:06:28;;;;;;;10.85;3.17;;;6.60;99.90;;;;;;5006057;28;20035;-74
2023/04/14 03:08:54;;;;;;;12.35;3.22;;;6.60;99.90;;;;;;5008075;28;20396;-73
2023/04/14 03:11:20;;;;;;;15.65;3.60;;;6.50;99.90;;;;;;5015224;28;20456;-74
2023/04/14 03:13:51;;;;;;;19.15;4.07;;;6.50;99.90;;;;;;5014336;28;20033;-74
2023/04/14 03:16:20;;;;;;;11.95;4.07;;;6.50;99.90;;;;;;5010198;28;20461;-73
2023/04/14 03:18:48;;;;;;;12.95;3.83;;;6.50;99.90;;;;;;5012587;28;20130;-73
2023/04/14 03:21:17;;;;;;;15.80;3.80;;;6.50;99.90;;;;;;5013565;28;20026;-74
2023/04/14 03:23:45;;;;;;;14.00;3.72;;;6.50;99.90;;;;;;5008951;28;20473;-74
2023/04/14 03:26:18;;;;;;;14.88;4.00;;;6.50;99.90;;;;;;5000715;28;20508;-73
2023/04/14 03:28:47;;;;;;;20.15;4.53;;;6.50;99.90;;;;;;5003875;28;20030;-73
2023/04/14 03:31:15;;;;;;;13.65;3.85;;;6.50;99.90;;;;;;5009735;28;20093;-74
2023/04/14 03:33:44;;;;;;;18.10;4.00;;;6.50;99.90;;;;;;5012931;28;20037;-74
2023/04/14 03:36:11;;;;;;;10.40;4.03;;;6.50;99.90;;;;;;5014038;28;20469;-74
2023/04/14 03:38:38;;;;;;;14.98;4.10;;;6.50;99.90;;;;;;5012198;28;20026;-73
2023/04/14 03:41:06;;;;;;;20.08;5.10;;;6.40;99.90;;;;;;5013059;28;20018;-73
2023/04/14 03:43:32;;;;;;;17.83;5.63;;;6.50;99.90;;;;;;5013695;28;20046;-74
2023/04/14 03:45:58;;;;;;;22.42;5.43;;;6.40;99.90;;;;;;5009490;28;20044;-73
2023/04/14 03:48:26;;;;;;;19.00;5.43;;;6.40;99.90;;;;;;5007226;28;20023;-74
2023/04/14 03:50:53;;;;;;;21.63;5.78;;;6.40;99.90;;;;;;4996006;28;20030;-74
2023/04/14 03:53:20;;;;;;;17.20;5.57;;;6.40;99.90;;;;;;5002096;28;20053;-75
2023/04/14 03:55:48;;;;;;;29.77;5.93;;;6.40;99.90;;;;;;5013479;28;20018;-75
2023/04/14 03:58:16;;;;;;;21.05;6.32;;;6.40;99.90;;;;;;5005116;28;20018;-75
2023/04/14 04:00:42;;;;;;;22.70;6.50;;;6.40;99.90;;;;;;5010337;28;20037;-75
2023/04/14 04:03:09;;;;;;;23.95;7.03;;;6.40;99.90;;;;;;5013542;28;20034;-75
2023/04/14 04:05:39;;;;;;;20.70;7.03;;;6.30;99.90;;;;;;5012775;28;20112;-75
2023/04/14 04:08:07;;;;;;;17.50;6.30;;;6.40;99.90;;;;;;5015063;28;20392;-74
2023/04/14 04:10:33;;;;;;;23.05;6.85;;;6.30;99.90;;;;;;5011274;28;20373;-74
2023/04/14 04:13:07;;;;;;;24.73;7.22;;;6.30;99.90;;;;;;5004727;28;20033;-75
2023/04/14 04:15:33;;;;;;;26.23;6.93;;;6.30;99.90;;;;;;5012858;28;20026;-75
2023/04/14 04:18:00;;;;;;;21.58;6.75;;;6.30;99.90;;;;;;5012980;28;20021;-74
2023/04/14 04:20:28;;;;;;;26.00;7.57;;;6.30;99.90;;;;;;5013304;28;20026;-74
2023/04/14 04:22:56;;;;;;;30.30;7.32;;;6.30;99.90;;;;;;5013362;28;20045;-75
2023/04/14 04:25:22;;;;;;;27.83;7.18;;;6.30;99.90;;;;;;5013068;28;20104;-74
2023/04/14 04:27:48;;;;;;;29.88;7.93;;;6.30;99.90;;;;;;5012673;28;20137;-74
2023/04/14 04:30:17;;;;;;;24.67;7.05;;;6.20;99.90;;;;;;5012841;28;20026;-74
2023/04/14 04:32:42;;;;;;;29.92;7.57;;;6.20;99.90;;;;;;5012754;28;20022;-74
2023/04/14 04:35:10;;;;;;;20.60;7.90;;;6.30;99.90;;;;;;5013341;28;20028;-74
2023/04/14 04:37:37;;;;;;;24.33;7.55;;;6.20;99.90;;;;;;5012681;28;20026;-75
2023/04/14 04:40:03;;;;;;;22.58;6.93;;;6.20;99.90;;;;;;5012838;28;20033;-73
2023/04/14 04:42:29;;;;;;;24.95;7.53;;;6.20;99.90;;;;;;5012753;28;20445;-75
2023/04/14 04:44:55;;;;;;;20.30;6.63;;;6.20;99.90;;;;;;5011626;28;20045;-74
2023/04/14 04:47:21;;;;;;;23.60;6.93;;;6.20;99.90;;;;;;5011724;28;20026;-74
2023/04/14 04:49:46;;;;;;;24.60;6.63;;;6.20;99.90;;;;;;5013414;28;20084;-74
2023/04/14 04:52:12;;;;;;;26.95;6.78;;;6.20;99.90;;;;;;5012851;28;20377;-75
2023/04/14 04:54:37;;;;;;;25.27;7.65;;;6.20;99.90;;;;;;5012663;28;20030;-75
2023/04/14 04:57:03;;;;;;;20.15;6.60;;;6.20;99.90;;;;;;5011688;28;20101;-74
2023/04/14 04:59:29;;;;;;;24.05;6.55;;;6.10;99.90;;;;;;5012005;28;20017;-74
2023/04/14 05:01:54;;;;;;;25.52;7.05;;;6.20;99.90;;;;;;5012082;28;20369;-74
2023/04/14 05:04:20;;;;;;;18.80;6.22;;;6.10;99.90;;;;;;5012548;28;20037;-73
2023/04/14 05:06:46;;;;;;;24.38;6.80;;;6.10;99.90;;;;;;5013055;28;20030;-74
2023/04/14 05:09:12;;;;;;;22.95;7.18;;;6.10;99.90;;;;;;5012541;28;20084;-73
2023/04/14 05:11:37;;;;;;;22.38;6.80;;;6.10;99.90;;;;;;5012867;28;20474;-74
2023/04/14 05:14:03;;;;;;;24.85;7.68;;;6.10;99.90;;;;;;5011873;28;20030;-74
2023/04/14 05:16:30;;;;;;;26.88;6.95;;;6.10;99.90;;;;;;5012226;28;20025;-73
2023/04/14 05:18:56;;;;;;;21.48;7.57;;;6.10;99.90;;;;;;5011508;28;20026;-75
2023/04/14 05:21:22;;;;;;;23.65;7.07;;;6.10;99.90;;;;;;5011974;28;20026;-75
2023/04/14 05:23:48;;;;;;;27.55;7.68;;;6.10;99.90;;;;;;5012443;28;20037;-74
2023/04/14 05:26:15;;;;;;;28.35;8.13;;;6.10;99.90;;;;;;5012453;28;20050;-74
2023/04/14 05:28:41;;;;;;;31.40;8.82;;;6.10;99.90;;;;;;5012805;28;20053;-75
2023/04/14 05:31:07;;;;;;;32.58;9.07;;;6.10;99.90;;;;;;5012189;28;20033;-75
2023/04/14 05:33:34;;;;;;;29.92;8.65;;;6.10;99.90;;;;;;5012153;28;20038;-74
2023/04/14 05:36:00;;;;;;;34.47;10.20;;;6.10;99.90;;;;;;5012230;28;20014;-75
2023/04/14 05:38:26;;;;;;;36.30;9.98;;;6.10;99.90;;;;;;5011626;28;20026;-74
2023/04/14 05:40:52;;;;;;;34.15;9.82;;;6.10;99.90;;;;;;5012242;28;20025;-75
2023/04/14 05:43:18;;;;;;;34.50;10.00;;;6.10;99.90;;;;;;5011744;28;20033;-74
2023/04/14 05:45:46;;;;;;;37.58;10.35;;;6.10;99.90;;;;;;5010318;28;20037;-74
2023/04/14 05:48:12;;;;;;;35.35;10.02;;;6.10;99.90;;;;;;5000593;28;20030;-74
2023/04/14 05:50:38;;;;;;;39.85;9.35;;;6.10;99.90;;;;;;5011861;28;20088;-75
2023/04/14 05:53:04;;;;;;;29.88;9.45;;;6.10;99.90;;;;;;5012204;28;20452;-74
2023/04/14 05:55:31;;;;;;;29.60;10.23;;;6.10;99.90;;;;;;5013893;28;20081;-74
2023/04/14 05:57:57;;;;;;;37.33;9.18;;;6.20;99.90;;;;;;5015943;28;20101;-75
2023/04/14 06:00:24;;;;;;;32.75;9.52;;;6.20;99.90;;;;;;5006849;28;20141;-75
2023/04/14 06:02:50;;;;;;;30.90;9.40;;;6.20;99.90;;;;;;5015340;28;20038;-75
2023/04/14 06:05:17;;;;;;;29.83;9.40;;;6.20;99.90;;;;;;5013803;28;20029;-74
2023/04/14 06:07:43;;;;;;;27.88;8.75;;;6.20;99.90;;;;;;5014981;28;20022;-74
2023/04/14 06:10:09;;;;;;;28.60;9.00;;;6.30;99.90;;;;;;5014553;28;20064;-75
2023/04/14 06:12:36;;;;;;;30.58;9.45;;;6.30;99.90;;;;;;5015571;28;20703;-74
2023/04/14 06:15:03;;;;;;;34.50;9.23;;;6.30;99.90;;;;;;5015335;28;20400;-74
2023/04/14 06:17:28;;;;;;;28.88;9.00;;;6.40;99.90;;;;;;5015236;28;20412;-74
2023/04/14 06:19:55;;;;;;;32.88;10.38;;;6.40;99.90;;;;;;5014190;28;20088;-74
2023/04/14 06:22:20;;;;;;;31.00;9.75;;;6.40;99.90;;;;;;5012436;28;20049;-74
2023/04/14 06:24:46;;;;;;;27.08;9.75;;;6.50;99.90;;;;;;5018209;28;20066;-74
2023/04/14 06:27:12;;;;;;;37.35;10.50;;;6.50;99.90;;;;;;5021040;28;20498;-74
2023/04/14 06:29:38;;;;;;;36.53;11.32;;;6.60;99.90;;;;;;5021459;28;20030;-74
2023/04/14 06:32:03;;;;;;;28.95;10.27;;;6.60;99.90;;;;;;5014645;28;20022;-75
2023/04/14 06:34:29;;;;;;;29.65;10.00;;;6.60;99.90;;;;;;5013360;28;20030;-75
2023/04/14 06:36:55;;;;;;;32.08;10.93;;;6.70;99.90;;;;;;5013082;28;20109;-75
2023/04/14 06:39:21;;;;;;;30.20;9.65;;;6.70;99.90;;;;;;5021504;28;20030;-75
2023/04/14 06:41:47;;;;;;;25.58;9.35;;;6.80;99.90;;;;;;5012454;28;20033;-74
2023/04/14 06:44:12;;;;;;;26.98;9.20;;;6.80;99.90;;;;;;5012800;28;20059;-74
2023/04/14 06:46:38;;;;;;;25.10;9.15;;;6.80;99.90;;;;;;5011997;28;20022;-75
2023/04/14 06:49:04;;;;;;;22.08;8.45;;;6.90;99.90;;;;;;5012106;28;20053;-75
2023/04/14 06:51:33;;;;;;;26.02;8.27;;;6.90;99.90;;;;;;5014782;28;20072;-75
2023/04/14 06:53:59;;;;;;;24.38;8.10;;;7.00;99.90;;;;;;5008245;28;20096;-76
2023/04/14 06:56:25;;;;;;;26.17;7.82;;;7.00;99.90;;;;;;5015620;28;20057;-76
2023/04/14 06:58:51;;;;;;;24.10;8.10;;;7.10;99.90;;;;;;5015616;28;20057;-75
2023/04/14 07:01:17;;;;;;;20.35;7.30;;;7.10;99.90;;;;;;5014495;28;20060;-75
2023/04/14 07:03:43;;;;;;;19.80;7.15;;;7.20;99.90;;;;;;5013093;28;20485;-75
2023/04/14 07:06:13;;;;;;;23.30;7.85;;;7.20;99.90;;;;;;5012280;28;20022;-75
2023/04/14 07:08:39;;;;;;;20.75;6.55;;;7.30;99.90;;;;;;5010817;28;20117;-74
2023/04/14 07:11:07;;;;;;;18.35;6.38;;;7.40;99.90;;;;;;5012563;28;20109;-75
2023/04/14 07:13:34;;;;;;;17.55;5.80;;;7.50;99.90;;;;;;5007377;28;20444;-75
2023/04/14 07:16:01;;;;;;;15.93;5.93;;;7.50;99.90;;;;;;5012173;28;20018;-75
2023/04/14 07:18:27;;;;;;;17.35;6.22;;;7.60;99.90;;;;;;5010671;28;20026;-75
2023/04/14 07:20:53;;;;;;;17.73;5.68;;;7.70;99.90;;;;;;5009297;28;20025;-74
2023/04/14 07:23:19;;;;;;;20.00;6.22;;;7.80;99.90;;;;;;5012326;28;20022;-74
2023/04/14 07:25:56;;;;;;;14.77;5.53;;;7.90;99.90;;;;;;5018997;28;20026;-75
2023/04/14 07:28:22;;;;;;;12.55;4.80;;;8.00;99.90;;;;;;5011546;28;20034;-75
2023/04/14 07:30:48;;;;;;;16.52;5.55;;;8.00;99.90;;;;;;5011964;28;20484;-74
2023/04/14 07:33:17;;;;;;;21.02;5.70;;;8.10;99.90;;;;;;5009257;28;20388;-74
2023/04/14 07:35:44;;;;;;;17.60;5.30;;;8.30;99.90;;;;;;5010502;28;20084;-75
2023/04/14 07:38:10;;;;;;;12.65;4.75;;;8.30;99.90;;;;;;5009839;28;20030;-75
2023/04/14 07:40:35;;;;;;;12.63;5.00;;;8.40;99.90;;;;;;5011469;28;20033;-74
2023/04/14 07:43:01;;;;;;;13.95;4.93;;;8.40;99.90;;;;;;5010774;28;20077;-76
2023/04/14 07:45:26;;;;;;;12.13;4.57;;;8.50;99.90;;;;;;5008435;28;20022;-74
2023/04/14 07:47:52;;;;;;;13.25;5.03;;;8.60;99.90;;;;;;5011653;28;20029;-74
2023/04/14 07:50:18;;;;;;;16.42;4.70;;;8.70;99.90;;;;;;5011765;28;20033;-73
2023/04/14 07:52:43;;;;;;;13.93;4.38;;;8.80;99.90;;;;;;5011927;28;20040;-74
2023/04/14 07:55:09;;;;;;;15.48;4.35;;;8.90;99.90;;;;;;5011794;28;20022;-74
2023/04/14 07:57:35;;;;;;;15.13;4.38;;;9.00;99.90;;;;;;5011500;28;20018;-74
2023/04/14 08:00:01;;;;;;;13.50;3.63;;;9.10;99.90;;;;;;5011665;28;20111;-74
2023/04/14 08:02:26;;;;;;;11.70;4.10;;;9.30;99.90;;;;;;5011294;28;20033;-73
2023/04/14 08:04:52;;;;;;;11.93;3.45;;;9.40;99.90;;;;;;5010644;28;20038;-73
2023/04/14 08:07:18;;;;;;;12.95;3.50;;;9.60;99.90;;;;;;5010391;28;20018;-73
2023/04/14 08:09:44;;;;;;;9.32;2.95;;;9.80;99.90;;;;;;5010347;28;20164;-73
2023/04/14 08:12:10;;;;;;;9.80;3.13;;;9.90;99.90;;;;;;5011038;28;20026;-73
2023/04/14 08:14:35;;;;;;;9.23;2.85;;;10.00;99.90;;;;;;5010722;28;20098;-73
2023/04/14 08:17:01;;;;;;;12.13;3.13;;;10.00;99.90;;;;;;5010764;28;20080;-74
2023/04/14 08:19:27;;;;;;;7.30;2.83;;;10.10;99.90;;;;;;5009586;28;20528;-73
2023/04/14 08:21:52;;;;;;;8.65;2.85;;;10.20;99.90;;;;;;5012278;28;20022;-74
2023/04/14 08:24:18;;;;;;;11.25;2.90;;;10.40;99.90;;;;;;5012397;28;20103;-74
2023/04/14 08:26:43;;;;;;;7.60;2.40;;;10.60;99.90;;;;;;5011978;28;20117;-74
2023/04/14 08:29:09;;;;;;;6.82;2.28;;;10.80;99.90;;;;;;5012037;28;20427;-74
2023/04/14 08:31:35;;;;;;;7.47;2.30;;;11.00;99.90;;;;;;5009010;28;20072;-74
2023/04/14 08:34:00;;;;;;;9.77;2.50;;;11.10;99.90;;;;;;5011837;28;20510;-74
2023/04/14 08:36:26;;;;;;;8.90;2.40;;;11.20;99.90;;;;;;5011720;28;20024;-74
2023/04/14 08:38:52;;;;;;;9.35;2.05;;;11.20;99.90;;;;;;5010863;28;20022;-74
2023/04/14 08:41:21;;;;;;;8.13;2.15;;;11.30;99.90;;;;;;4997892;28;20064;-74
2023/04/14 08:43:47;;;;;;;5.72;2.00;;;11.30;99.90;;;;;;5010946;28;20431;-74
2023/04/14 08:46:14;;;;;;;8.25;1.95;;;11.30;99.90;;;;;;5010556;28;20025;-74
2023/04/14 08:48:42;;;;;;;8.18;1.70;;;11.40;99.90;;;;;;5010928;28;20026;-74
2023/04/14 08:51:20;;;;;;;8.93;2.03;;;11.50;99.90;;;;;;5010368;28;20018;-74
2023/04/14 08:53:47;;;;;;;7.40;1.83;;;11.60;99.90;;;;;;5010500;28;20056;-74
2023/04/14 08:56:15;;;;;;;7.60;1.73;;;11.70;99.90;;;;;;5010153;28;20026;-73
2023/04/14 08:58:41;;;;;;;7.00;1.92;;;11.80;99.90;;;;;;5010698;28;20030;-73
2023/04/14 09:01:07;;;;;;;5.97;1.60;;;12.00;99.90;;;;;;5009867;28;20053;-74
2023/04/14 09:03:34;;;;;;;9.85;2.17;;;12.20;99.90;;;;;;5011716;28;20493;-73
2023/04/14 09:06:00;;;;;;;5.35;1.63;;;12.40;99.90;;;;;;5010907;28;20041;-73
2023/04/14 09:08:26;;;;;;;5.07;1.30;;;12.50;99.90;;;;;;5011162;28;20036;-73
2023/04/14 09:10:53;;;;;;;7.00;1.30;;;12.40;99.90;;;;;;5010856;28;20050;-74
2023/04/14 09:13:21;;;;;;;8.88;1.90;;;12.40;99.90;;;;;;5011568;28;20109;-74
2023/04/14 09:15:48;;;;;;;5.38;1.52;;;12.60;99.90;;;;;;5011520;28;20351;-74
2023/04/14 09:18:14;;;;;;;6.68;1.73;;;12.70;99.90;;;;;;5011252;28;20132;-72
2023/04/14 09:20:39;;;;;;;9.07;1.85;;;13.00;99.90;;;;;;5011225;28;20488;-73
2023/04/14 09:23:07;;;;;;;6.13;1.90;;;13.20;99.90;;;;;;5011720;28;20029;-73
2023/04/14 09:25:32;;;;;;;4.93;1.42;;;13.40;99.90;;;;;;5010937;28;20026;-74
2023/04/14 09:27:58;;;;;;;6.82;1.52;;;13.40;99.90;;;;;;5011508;28;20024;-74
2023/04/14 09:30:24;;;;;;;8.43;1.83;;;13.40;99.90;;;;;;5012607;28;20048;-73
2023/04/14 09:32:55;;;;;;;7.22;1.60;;;13.40;99.90;;;;;;5015408;28;20014;-73
2023/04/14 09:35:20;;;;;;;8.45;1.63;;;13.40;99.90;;;;;;5015416;28;20536;-73
2023/04/14 09:37:47;;;;;;;5.55;1.70;;;13.40;99.90;;;;;;5011352;28;20027;-73
2023/04/14 09:40:29;;;;;;;8.98;1.60;;;13.50;99.90;;;;;;5006695;28;20531;-74
2023/04/14 09:42:55;;;;;;;4.20;1.33;;;13.60;99.90;;;;;;5014645;28;20034;-74
2023/04/14 09:45:21;;;;;;;3.72;1.30;;;13.70;99.90;;;;;;5014877;28;20069;-74
2023/04/14 09:47:47;;;;;;;5.90;1.20;;;13.70;99.90;;;;;;5014917;28;20030;-74
2023/04/14 09:50:13;;;;;;;9.88;1.73;;;13.80;99.90;;;;;;5015035;28;20449;-74
2023/04/14 09:52:41;;;;;;;6.82;1.48;;;13.80;99.90;;;;;;5013430;28;20056;-75
2023/04/14 09:55:11;;;;;;;5.47;1.67;;;13.90;99.90;;;;;;5015180;28;20041;-75
2023/04/14 09:57:40;;;;;;;6.20;1.92;;;14.00;99.90;;;;;;5013588;28;20528;-73
2023/04/14 10:00:16;;;;;;;6.65;1.75;;;14.10;99.90;;;;;;5014834;28;20061;-74
2023/04/14 10:02:54;;;;;;;7.82;1.90;;;14.10;99.90;;;;;;5014924;28;20022;-74
2023/04/14 10:05:25;;;;;;;9.75;2.00;;;14.20;99.90;;;;;;5014567;28;20033;-73
2023/04/14 10:07:50;;;;;;;9.38;2.20;;;14.30;99.90;;;;;;5015111;28;20682;-74
2023/04/14 10:10:16;;;;;;;8.25;2.30;;;14.40;99.90;;;;;;5014121;28;20046;-74
2023/04/14 10:12:43;;;;;;;7.38;2.60;;;14.50;99.90;;;;;;5014822;28;20079;-75
2023/04/14 10:15:09;;;;;;;7.13;2.42;;;14.70;99.90;;;;;;5014299;28;20037;-75
2023/04/14 10:17:36;;;;;;;7.07;2.95;;;14.90;99.90;;;;;;5014372;28;20072;-73
2023/04/14 10:20:04;;;;;;;12.00;2.75;;;15.00;99.90;;;;;;5011794;28;20080;-74
2023/04/14 10:22:30;;;;;;;7.10;2.80;;;15.10;99.90;;;;;;5007639;28;20555;-75
2023/04/14 10:24:58;;;;;;;9.85;2.75;;;15.20;99.90;;;;;;5016701;28;20091;-75
2023/04/14 10:27:26;;;;;;;7.90;2.83;;;15.20;99.90;;;;;;5016413;28;20060;-75
2023/04/14 10:29:52;;;;;;;6.97;2.85;;;15.20;99.90;;;;;;5014883;28;20022;-73
2023/04/14 10:32:19;;;;;;;12.02;3.25;;;15.20;99.90;;;;;;5014723;28;20026;-75
2023/04/14 10:35:08;;;;;;;13.30;2.90;;;15.30;99.90;;;;;;5013622;28;20030;-74
2023/04/14 10:37:34;;;;;;;6.90;2.13;;;15.50;99.90;;;;;;5013872;28;20029;-73
2023/04/14 10:40:04;;;;;;;4.28;1.67;;;15.60;99.90;;;;;;5014507;28;20022;-74
2023/04/14 10:42:50;;;;;;;5.57;1.45;;;15.70;99.90;;;;;;5013004;28;20428;-75
2023/04/14 10:45:16;;;;;;;5.05;1.50;;;15.80;99.90;;;;;;5006579;28;20030;-75
2023/04/14 10:47:44;;;;;;;6.72;1.50;;;15.80;97.80;;;;;;5013244;28;20022;-74
2023/04/14 10:50:18;;;;;;;7.22;1.45;;;15.70;98.80;;;;;;5014038;28;20468;-74
2023/04/14 10:52:53;;;;;;;8.10;1.55;;;15.70;98.20;;;;;;5014014;28;20056;-72
2023/04/14 10:55:24;;;;;;;6.63;1.70;;;15.60;97.30;;;;;;5014658;28;20084;-74
2023/04/14 10:57:50;;;;;;;6.10;1.48;;;15.60;97.30;;;;;;5013518;28;20041;-73
2023/04/14 11:00:21;;;;;;;6.65;1.52;;;15.50;96.80;;;;;;5013445;28;20097;-74
2023/04/14 11:03:16;;;;;;;4.57;1.40;;;15.50;97.60;;;;;;5013335;28;20049;-74
2023/04/14 11:05:48;;;;;;;6.72;1.90;;;15.50;96.10;;;;;;5015151;28;20050;-74
2023/04/14 11:08:23;;;;;;;6.13;1.80;;;15.60;98.00;;;;;;5013767;28;20465;-74
2023/04/14 11:10:58;;;;;;;5.05;1.45;;;15.70;97.90;;;;;;5012473;28;20050;-75
2023/04/14 11:13:24;;;;;;;3.83;1.70;;;15.70;97.30;;;;;;5001265;28;20380;-74
2023/04/14 11:16:01;;;;;;;6.55;1.70;;;15.80;96.80;;;;;;5013042;28;20038;-74
2023/04/14 11:18:44;;;;;;;3.65;1.42;;;15.70;96.20;;;;;;5012320;28;20109;-74
2023/04/14 11:21:14;;;;;;;7.25;1.80;;;15.70;96.50;;;;;;5012935;28;20037;-74
2023/04/14 11:23:41;;;;;;;4.55;1.65;;;15.70;96.80;;;;;;5000017;28;20025;-74
2023/04/14 11:26:08;;;;;;;4.03;1.98;;;15.70;96.50;;;;;;5012289;28;20034;-74
2023/04/14 11:28:39;;;;;;;7.90;2.08;;;15.70;96.60;;;;;;5012988;28;20032;-74
2023/04/14 11:31:07;;;;;;;5.15;1.55;;;15.70;96.20;;;;;;5013033;28;20022;-74
2023/04/14 11:33:35;;;;;;;5.90;2.00;;;15.70;96.60;;;;;;5013857;28;20033;-74
2023/04/14 11:36:02;;;;;;;5.35;2.13;;;15.80;96.30;;;;;;5013177;28;20022;-73
2023/04/14 11:38:28;;;;;;;6.60;1.88;;;15.90;96.10;;;;;;5012479;28;20037;-74
2023/04/14 11:40:55;;;;;;;5.45;2.10;;;16.00;95.40;;;;;;5011406;28;20056;-74
2023/04/14 11:43:22;;;;;;;6.35;2.08;;;16.00;94.30;;;;;;5012057;28;20045;-74
2023/04/14 11:45:48;;;;;;;4.68;1.70;;;15.90;94.20;;;;;;5012367;28;20060;-72
2023/04/14 11:48:18;;;;;;;6.47;1.83;;;15.80;93.80;;;;;;5011965;28;20100;-73
2023/04/14 11:50:45;;;;;;;6.53;2.08;;;15.70;93.50;;;;;;5012271;28;20058;-73
2023/04/14 11:53:16;;;;;;;4.78;1.80;;;15.50;93.60;;;;;;5012094;28;20037;-73
2023/04/14 11:55:49;;;;;;;6.22;2.00;;;15.50;94.20;;;;;;5012698;28;20037;-74
2023/04/14 11:58:21;;;;;;;4.03;1.70;;;15.40;94.30;;;;;;5011531;28;20030;-74
2023/04/14 12:00:51;;;;;;;6.20;2.05;;;15.30;94.00;;;;;;5011916;28;20381;-74
2023/04/14 12:03:17;;;;;;;4.68;1.42;;;15.20;94.20;;;;;;5012377;28;20144;-74
2023/04/14 12:05:43;;;;;;;6.25;1.75;;;15.20;94.80;;;;;;5012331;28;20105;-73
2023/04/14 12:08:11;;;;;;;4.43;1.52;;;15.30;95.00;;;;;;5012341;28;20622;-74
2023/04/14 12:10:37;;;;;;;5.03;1.30;;;15.20;94.50;;;;;;5011884;28;20053;-74
2023/04/14 12:13:05;;;;;;;6.10;1.42;;;15.10;93.70;;;;;;5011922;28;20029;-74
2023/04/14 12:15:35;;;;;;;3.35;1.33;;;15.00;93.30;;;;;;5012071;28;20385;-73
2023/04/14 12:18:01;;;;;;;4.43;1.58;;;14.90;93.20;;;;;;5012183;28;20333;-74
2023/04/14 12:20:29;;;;;;;5.68;1.58;;;15.00;93.30;;;;;;5011966;28;20022;-74
2023/04/14 12:23:02;;;;;;;3.30;1.42;;;15.10;93.20;;;;;;5011826;28;20091;-74
2023/04/14 12:25:31;;;;;;;3.80;1.63;;;15.20;92.80;;;;;;5005562;28;20065;-75
2023/04/14 12:27:57;;;;;;;5.45;1.35;;;15.10;92.80;;;;;;5011798;28;20029;-74
2023/04/14 12:30:25;;;;;;;4.53;1.30;;;15.00;92.70;;;;;;5011125;28;20025;-74
2023/04/14 12:32:51;;;;;;;4.30;1.60;;;15.00;92.60;;;;;;5010477;28;20080;-74
2023/04/14 12:35:22;;;;;;;4.53;1.40;;;14.90;92.60;;;;;;5012284;28;20242;-74
2023/04/14 12:37:48;;;;;;;2.30;1.30;;;15.00;93.40;;;;;;5011632;28;20021;-73
2023/04/14 12:40:15;;;;;;;4.05;1.40;;;15.10;93.80;;;;;;5011683;28;20018;-74
2023/04/14 12:42:48;;;;;;;3.65;1.42;;;15.30;93.90;;;;;;5010703;28;20493;-73
2023/04/14 12:45:15;;;;;;;4.88;1.52;;;15.40;92.60;;;;;;5010939;28;20066;-74
2023/04/14 12:47:51;;;;;;;3.20;1.20;;;15.40;92.50;;;;;;5010185;28;20029;-73
2023/04/14 12:50:31;;;;;;;4.80;1.25;;;15.50;91.40;;;;;;5010882;28;20103;-74